Time;durP1;ratioP1;P1;durP2;ratioP2;P2;SDS_P1;SDS_P2;PMS_P1;PMS_P2;Temp;Humidity;BMP_temperature;BMP_pressure;BME280_temperature;BME280_humidity;BME280_pressure;Samples;Min_cycle;Max_cycle;Signal;HPM_P1;HPM_P2
2023/07/26 00:00:59;;;;;;;2.07;1.20;;;;;;;;;;20947093;28;20634;-81
2023/07/26 00:11:04;;;;;;;1.97;1.30;;;;;;;;;;20901140;28;20220;-84
2023/07/26 00:21:08;;;;;;;2.30;1.10;;;;;;;;;;20909950;28;20289;-83
2023/07/26 00:31:10;;;;;;;1.20;0.90;;;;;;;;;;20947721;28;20228;-82
2023/07/26 00:41:12;;;;;;;1.33;0.80;;;;;;;;;;20934315;28;20229;-82
2023/07/26 00:51:14;;;;;;;1.50;0.70;;;;;;;;;;20956902;28;20221;-83
2023/07/26 01:01:16;;;;;;;1.17;0.80;;;;;;;;;;20939703;28;20694;-83
2023/07/26 01:11:24;;;;;;;2.20;1.00;;;;;;;;;;20941018;28;20291;-85
2023/07/26 01:21:25;;;;;;;1.07;0.70;;;;;;;;;;20978592;28;20279;-84
2023/07/26 01:31:27;;;;;;;2.70;0.97;;;;;;;;;;20941407;28;20237;-83
2023/07/26 01:41:30;;;;;;;1.03;0.83;;;;;;;;;;20923023;28;20225;-83
2023/07/26 01:51:31;;;;;;;1.93;0.80;;;;;;;;;;20974267;28;20271;-82
2023/07/26 02:01:33;;;;;;;2.37;0.70;;;;;;;;;;20917300;28;20702;-84
2023/07/26 02:11:34;;;;;;;2.83;0.93;;;;;;;;;;20931179;28;20710;-81
2023/07/26 02:21:36;;;;;;;1.00;0.63;;;;;;;;;;20934371;28;20691;-83
2023/07/26 02:31:38;;;;;;;1.13;0.80;;;;;;;;;;20901828;28;20595;-84
2023/07/26 02:41:40;;;;;;;4.00;0.87;;;;;;;;;;20925295;28;20217;-81
2023/07/26 02:51:41;;;;;;;1.63;0.80;;;;;;;;;;20932621;28;20221;-83
2023/07/26 03:01:44;;;;;;;1.40;0.87;;;;;;;;;;20959491;28;20922;-83
2023/07/26 03:11:48;;;;;;;1.00;0.70;;;;;;;;;;20910492;28;20225;-83
2023/07/26 03:21:50;;;;;;;1.10;0.70;;;;;;;;;;20960093;28;20268;-80
2023/07/26 03:31:52;;;;;;;2.93;0.80;;;;;;;;;;20977718;28;20285;-80
2023/07/26 03:41:53;;;;;;;1.10;0.70;;;;;;;;;;20973728;28;20619;-80
2023/07/26 03:51:55;;;;;;;1.27;0.70;;;;;;;;;;20949090;28;20237;-82
2023/07/26 04:01:57;;;;;;;3.87;0.73;;;;;;;;;;20929853;28;20274;-82
2023/07/26 04:11:59;;;;;;;0.80;0.60;;;;;;;;;;20908231;28;20221;-85
2023/07/26 04:22:00;;;;;;;1.03;0.77;;;;;;;;;;20964600;28;20233;-82
2023/07/26 04:32:02;;;;;;;1.13;0.63;;;;;;;;;;20944796;28;20224;-83
2023/07/26 04:42:04;;;;;;;1.27;0.67;;;;;;;;;;20981206;28;20630;-81
2023/07/26 04:52:06;;;;;;;1.50;0.63;;;;;;;;;;20944894;28;20225;-82
2023/07/26 05:02:07;;;;;;;1.80;0.90;;;;;;;;;;20938862;28;20286;-82
2023/07/26 05:12:09;;;;;;;0.93;0.80;;;;;;;;;;20935520;28;20280;-82
2023/07/26 05:22:11;;;;;;;2.73;1.00;;;;;;;;;;20917350;28;20247;-81
2023/07/26 05:32:12;;;;;;;1.07;0.80;;;;;;;;;;20940465;28;20237;-82
2023/07/26 05:42:14;;;;;;;1.17;0.80;;;;;;;;;;20955614;28;20221;-81
2023/07/26 05:52:16;;;;;;;1.43;0.73;;;;;;;;;;21022884;28;20251;-82
2023/07/26 06:02:18;;;;;;;0.93;0.70;;;;;;;;;;20953147;28;20213;-84
2023/07/26 06:12:20;;;;;;;2.03;0.70;;;;;;;;;;20910750;28;20229;-85
2023/07/26 06:22:22;;;;;;;1.10;0.60;;;;;;;;;;20951732;28;20611;-84
2023/07/26 06:32:29;;;;;;;0.77;0.47;;;;;;;;;;20960100;28;20232;-83
2023/07/26 06:42:32;;;;;;;0.90;0.50;;;;;;;;;;20931545;28;20679;-83
2023/07/26 06:52:34;;;;;;;0.30;0.30;;;;;;;;;;20931826;28;20778;-86
2023/07/26 07:02:36;;;;;;;0.67;0.60;;;;;;;;;;20984012;28;20239;-87
2023/07/26 07:13:12;;;;;;;0.40;0.37;;;;;;;;;;20912987;28;20644;-84
2023/07/26 07:23:39;;;;;;;0.67;0.40;;;;;;;;;;20981392;28;20217;-85
2023/07/26 07:33:41;;;;;;;1.07;0.50;;;;;;;;;;20918593;28;20224;-81
2023/07/26 07:43:45;;;;;;;1.30;0.60;;;;;;;;;;20955613;28;20216;-85
2023/07/26 07:53:56;;;;;;;1.20;0.63;;;;;;;;;;20947099;28;20275;-86
2023/07/26 08:03:59;;;;;;;1.00;0.60;;;;;;;;;;20968801;28;20282;-85
2023/07/26 08:14:02;;;;;;;0.60;0.50;;;;;;;;;;20979489;28;20784;-83
2023/07/26 08:24:04;;;;;;;0.70;0.50;;;;;;;;;;20967740;28;20227;-84
2023/07/26 08:34:05;;;;;;;0.53;0.50;;;;;;;;;;20941489;28;20241;-83
2023/07/26 08:44:09;;;;;;;0.43;0.40;;;;;;;;;;20960296;28;20220;-85
2023/07/26 08:54:12;;;;;;;1.07;0.70;;;;;;;;;;20931634;28;20273;-84
2023/07/26 09:04:14;;;;;;;0.80;0.40;;;;;;;;;;20945632;28;20283;-87
2023/07/26 09:14:16;;;;;;;0.67;0.53;;;;;;;;;;20946847;28;20226;-85
2023/07/26 09:24:18;;;;;;;0.70;0.50;;;;;;;;;;20947753;28;20776;-82
2023/07/26 09:34:20;;;;;;;1.37;0.60;;;;;;;;;;20934767;28;20234;-84
2023/07/26 09:44:22;;;;;;;0.63;0.40;;;;;;;;;;20942969;28;20228;-84
2023/07/26 09:54:27;;;;;;;0.57;0.40;;;;;;;;;;20961569;28;20228;-86
2023/07/26 10:04:36;;;;;;;0.40;0.30;;;;;;;;;;20923298;28;20218;-85
2023/07/26 10:14:38;;;;;;;0.63;0.40;;;;;;;;;;20952503;28;20223;-86
2023/07/26 10:24:42;;;;;;;0.80;0.47;;;;;;;;;;20963345;28;20214;-86
2023/07/26 10:34:44;;;;;;;0.93;0.50;;;;;;;;;;20937676;28;20289;-86
2023/07/26 10:44:45;;;;;;;0.73;0.40;;;;;;;;;;20947129;28;20553;-86
2023/07/26 10:54:48;;;;;;;1.00;0.60;;;;;;;;;;20927702;28;20760;-86
2023/07/26 11:04:51;;;;;;;1.93;0.60;;;;;;;;;;20969104;28;20215;-86
2023/07/26 11:14:55;;;;;;;0.70;0.50;;;;;;;;;;20958841;28;20239;-87
2023/07/26 11:25:02;;;;;;;0.77;0.40;;;;;;;;;;20954320;28;20207;-88
2023/07/26 11:35:05;;;;;;;1.80;0.60;;;;;;;;;;20954248;28;20259;-85
2023/07/26 11:45:07;;;;;;;0.90;0.50;;;;;;;;;;20935671;28;20310;-87
2023/07/26 11:55:12;;;;;;;2.23;0.70;;;;;;;;;;20956920;28;20230;-87
2023/07/26 12:05:14;;;;;;;2.57;0.60;;;;;;;;;;20891610;22;20230;-70
2023/07/26 12:15:37;;;;;;;2.30;0.80;;;;;;;;;;20881534;28;20236;-71
2023/07/26 12:26:00;;;;;;;1.43;0.57;;;22.90;99.90;;;;;;20877079;28;20220;-70
2023/07/26 12:36:01;;;;;;;1.00;0.57;;;;;;;;;;20896070;22;20217;-67
2023/07/26 12:46:03;;;;;;;3.13;1.02;;;;;;;;;;20945642;28;20220;-67
2023/07/26 12:56:05;;;;;;;1.33;0.80;;;;;;;;;;20962870;28;20682;-67
2023/07/26 13:06:07;;;;;;;1.10;0.90;;;;;;;;;;20980384;28;20215;-67
2023/07/26 13:16:09;;;;;;;1.63;0.90;;;;;;;;;;20937659;28;20251;-67
2023/07/26 13:26:10;;;;;;;1.20;0.60;;;;;;;;;;20970052;28;20206;-67
2023/07/26 13:36:12;;;;;;;1.07;0.57;;;;;;;;;;20945332;28;20231;-67
2023/07/26 13:46:15;;;;;;;1.13;0.60;;;;;;;;;;20931718;28;20777;-67
2023/07/26 13:56:17;;;;;;;1.38;0.70;;;;;;;;;;20947356;28;20261;-67
2023/07/26 14:06:20;;;;;;;1.53;0.60;;;;;;;;;;20992763;28;20224;-67
2023/07/26 14:16:22;;;;;;;2.87;0.70;;;;;;;;;;20996850;28;20227;-67
2023/07/26 14:26:23;;;;;;;1.88;0.52;;;;;;;;;;20947945;28;20216;-67
2023/07/26 14:36:26;;;;;;;0.75;0.45;;;;;;;;;;20957219;28;20224;-67
2023/07/26 14:46:28;;;;;;;0.88;0.45;;;;;;;;;;20987760;28;20217;-67
2023/07/26 14:56:29;;;;;;;1.23;0.73;;;;;;;;;;20962965;28;20221;-67
2023/07/26 15:06:32;;;;;;;1.17;0.60;;;;;;;;;;21007730;28;20346;-68
2023/07/26 15:16:33;;;;;;;0.68;0.52;;;;;;;;;;20997546;28;20708;-67
2023/07/26 15:26:35;;;;;;;0.63;0.50;;;;;;;;;;20953046;28;20226;-67
2023/07/26 15:36:37;;;;;;;0.97;0.50;;;;;;;;;;20949942;28;20333;-67
2023/07/26 15:46:39;;;;;;;1.20;0.50;;;;;;;;;;20992069;28;20271;-67
2023/07/26 15:56:43;;;;;;;1.30;0.47;;;;;;;;;;20974859;28;20250;-67
2023/07/26 16:06:45;;;;;;;3.70;0.67;;;;;;;;;;20994362;28;20690;-67
2023/07/26 16:16:47;;;;;;;0.70;0.40;;;;;;;;;;20964549;28;20692;-67
2023/07/26 16:26:50;;;;;;;1.17;0.60;;;;;;;;;;20976012;28;20706;-67
2023/07/26 16:36:52;;;;;;;0.83;0.47;;;;;;;;;;20906186;28;20228;-66
2023/07/26 16:46:54;;;;;;;1.73;0.60;;;;;;;;;;20942035;28;20239;-66
2023/07/26 16:56:56;;;;;;;1.42;0.52;;;;;;;;;;20917090;28;20231;-67
2023/07/26 17:06:58;;;;;;;0.57;0.47;;;;;;;;;;20898498;28;20224;-67
2023/07/26 17:17:00;;;;;;;1.50;0.93;;;;;;;;;;20912394;28;20308;-67
2023/07/26 17:27:01;;;;;;;1.55;0.90;;;;;;;;;;20932692;28;20698;-67
2023/07/26 17:37:03;;;;;;;0.67;0.50;;;;;;;;;;20951190;28;20296;-67
2023/07/26 17:47:06;;;;;;;0.60;0.50;;;;;;;;;;20989283;28;20234;-67
2023/07/26 17:57:08;;;;;;;0.73;0.50;;;;;;;;;;20946303;28;20298;-67
2023/07/26 18:07:10;;;;;;;0.40;0.37;;;;;;;;;;21012907;28;20216;-66
2023/07/26 18:17:12;;;;;;;0.77;0.47;;;;;;;;;;20958794;28;20228;-66
2023/07/26 18:27:14;;;;;;;0.63;0.40;;;;;;;;;;20982197;28;20235;-66
2023/07/26 18:37:16;;;;;;;0.70;0.40;;;;;;;;;;20936504;28;20332;-66
2023/07/26 18:47:18;;;;;;;0.97;0.73;;;;;;;;;;20953598;23;20834;-74
2023/07/26 18:57:20;;;;;;;0.40;0.30;;;;;;;;;;20802174;28;20278;-73
2023/07/26 19:07:21;;;;;;;0.93;0.40;;;;;;;;;;20814437;28;20773;-74
2023/07/26 19:17:24;;;;;;;1.43;0.43;;;;;;;;;;20801372;28;20572;-74
2023/07/26 20:12:12;;;;;;;0.80;0.30;;;;;;;;;;20947630;28;20242;-68
2023/07/26 20:22:14;;;;;;;2.47;0.57;;;;;;;;;;20915244;28;20286;-68
2023/07/26 20:32:16;;;;;;;0.47;0.37;;;;;;;;;;20901380;28;20207;-68
2023/07/26 20:42:18;;;;;;;1.30;0.53;;;;;;;;;;20920635;28;20253;-68
2023/07/26 20:52:34;;;;;;;0.70;0.50;;;19.80;99.90;;;;;;20915932;28;20312;-68
2023/07/26 21:02:39;;;;;;;0.70;0.47;;;;;;;;;;20807431;23;20228;-72
2023/07/26 21:12:40;;;;;;;1.23;0.60;;;;;;;;;;20841620;28;20209;-73
2023/07/26 21:22:42;;;;;;;2.00;0.80;;;;;;;;;;20816996;28;20217;-73
2023/07/26 21:32:46;;;;;;;2.03;0.70;;;;;;;;;;20772761;28;20218;-73
2023/07/26 21:43:06;;;;;;;1.13;0.63;;;;;;;;;;20787845;28;20229;-73
2023/07/26 21:53:08;;;;;;;1.50;0.90;;;;;;;;;;20789547;28;20252;-72
2023/07/26 22:03:10;;;;;;;1.20;0.50;;;;;;;;;;20761815;28;20255;-72
2023/07/26 22:13:11;;;;;;;0.90;0.53;;;;;;;;;;20699855;28;20239;-72
2023/07/26 22:23:13;;;;;;;1.87;0.80;;;;;;;;;;20695072;28;20259;-72
2023/07/26 22:33:15;;;;;;;1.87;0.63;;;;;;;;;;20729735;28;20278;-72
2023/07/26 22:43:17;;;;;;;1.37;0.70;;;;;;;;;;20692920;28;20217;-73
2023/07/26 22:53:20;;;;;;;1.30;0.80;;;;;;;;;;20704043;28;20228;-72
2023/07/26 23:03:22;;;;;;;1.33;0.70;;;;;;;;;;20718169;28;20298;-72
2023/07/26 23:13:25;;;;;;;0.77;0.50;;;;;;;;;;20748648;28;20490;-72
2023/07/26 23:23:27;;;;;;;1.17;0.77;;;;;;;;;;20770046;28;20215;-72
2023/07/26 23:33:29;;;;;;;3.13;0.80;;;;;;;;;;20797861;28;20262;-72
2023/07/26 23:43:31;;;;;;;1.00;0.53;;;;;;;;;;20738634;28;20658;-72
2023/07/26 23:53:33;;;;;;;1.63;0.83;;;;;;;;;;20782968;28;20235;-75
